Time;durP1;ratioP1;P1;durP2;ratioP2;P2;SDS_P1;SDS_P2;PMS_P1;PMS_P2;Temp;Humidity;BMP_temperature;BMP_pressure;BME280_temperature;BME280_humidity;BME280_pressure;Samples;Min_cycle;Max_cycle;Signal;HPM_P1;HPM_P2
2020/12/03 00:01:46;;;;;;;12.60;11.03;;;19.40;55.50;;;;;;5020125;28;20274;-56
2020/12/03 00:04:12;;;;;;;11.50;10.33;;;19.40;55.50;;;;;;4996849;28;20749;-59
2020/12/03 00:06:44;;;;;;;12.67;10.47;;;19.40;55.50;;;;;;5004001;28;20227;-56
2020/12/03 00:09:16;;;;;;;10.87;9.47;;;19.30;55.50;;;;;;5003057;28;20237;-58
2020/12/03 00:11:49;;;;;;;11.07;9.97;;;19.30;55.50;;;;;;5018552;28;20223;-58
2020/12/03 00:14:16;;;;;;;11.63;10.43;;;19.40;55.70;;;;;;5008683;28;20253;-58
2020/12/03 00:16:42;;;;;;;10.90;9.77;;;19.30;55.70;;;;;;5006103;28;20767;-57
2020/12/03 00:19:11;;;;;;;11.27;9.77;;;19.30;55.70;;;;;;5010531;28;20225;-59
2020/12/03 00:21:41;;;;;;;11.00;9.90;;;19.30;55.70;;;;;;5021988;28;20941;-59
2020/12/03 00:24:09;;;;;;;11.53;9.90;;;19.30;55.70;;;;;;5017315;28;20211;-58
2020/12/03 00:26:35;;;;;;;11.47;10.27;;;19.30;55.70;;;;;;5023717;28;20566;-56
2020/12/03 00:29:02;;;;;;;11.80;10.57;;;19.20;55.70;;;;;;5024261;28;20225;-57
2020/12/03 00:31:28;;;;;;;11.57;10.37;;;19.20;55.70;;;;;;5016451;28;20242;-58
2020/12/03 00:33:56;;;;;;;10.70;9.60;;;19.20;55.80;;;;;;5024199;28;20925;-58
2020/12/03 00:36:22;;;;;;;11.70;10.10;;;19.10;55.80;;;;;;5017185;28;20752;-57
2020/12/03 00:38:49;;;;;;;11.13;9.73;;;19.10;55.80;;;;;;5021907;28;20705;-59
2020/12/03 00:41:18;;;;;;;10.43;9.43;;;19.10;55.90;;;;;;5014954;28;20553;-56
2020/12/03 00:43:45;;;;;;;10.97;9.83;;;19.10;55.90;;;;;;5015361;28;20233;-57
2020/12/03 00:46:17;;;;;;;10.47;9.40;;;19.10;55.90;;;;;;5017073;28;20301;-58
2020/12/03 00:48:43;;;;;;;10.87;9.27;;;19.10;55.90;;;;;;5025999;28;20961;-58
2020/12/03 00:51:12;;;;;;;10.17;9.17;;;19.10;55.90;;;;;;5016070;28;20285;-58
2020/12/03 00:53:39;;;;;;;11.03;9.80;;;19.10;55.90;;;;;;5023194;28;20431;-58
2020/12/03 00:56:06;;;;;;;9.97;8.97;;;19.10;55.90;;;;;;5017711;28;20218;-58
2020/12/03 00:58:33;;;;;;;9.90;8.90;;;19.00;55.90;;;;;;5023275;28;20297;-58
2020/12/03 01:00:59;;;;;;;10.10;9.10;;;19.00;55.90;;;;;;5016666;28;20226;-58
2020/12/03 01:03:25;;;;;;;10.30;9.20;;;19.00;55.90;;;;;;5026331;28;20245;-57
2020/12/03 01:05:51;;;;;;;10.57;9.50;;;19.00;56.00;;;;;;5017101;28;20691;-58
2020/12/03 01:08:18;;;;;;;10.43;9.33;;;19.00;56.00;;;;;;5024384;28;20233;-58
2020/12/03 01:10:44;;;;;;;10.37;9.10;;;19.00;56.10;;;;;;5023442;28;20238;-58
2020/12/03 01:13:13;;;;;;;10.10;8.97;;;18.90;56.00;;;;;;5012338;28;20230;-58
2020/12/03 01:15:41;;;;;;;9.93;8.90;;;18.90;56.00;;;;;;5025114;28;20265;-57
2020/12/03 01:18:07;;;;;;;9.63;8.63;;;18.90;56.10;;;;;;5018369;28;20227;-56
2020/12/03 01:20:34;;;;;;;10.57;9.47;;;18.90;56.00;;;;;;5025315;28;20289;-59
2020/12/03 01:23:00;;;;;;;9.53;8.43;;;18.90;56.10;;;;;;5015648;28;20234;-59
2020/12/03 01:25:26;;;;;;;11.03;9.93;;;18.90;56.10;;;;;;5022508;28;20235;-58
2020/12/03 01:27:54;;;;;;;10.53;9.40;;;18.80;56.00;;;;;;5017647;28;20238;-58
2020/12/03 01:30:21;;;;;;;9.37;8.47;;;18.90;56.70;;;;;;5027295;28;20742;-57
2020/12/03 01:32:48;;;;;;;10.07;9.07;;;18.80;56.10;;;;;;5020626;28;20226;-57
2020/12/03 01:35:17;;;;;;;10.07;9.07;;;18.80;56.10;;;;;;5026741;28;20223;-58
2020/12/03 01:37:43;;;;;;;9.33;8.40;;;18.80;56.20;;;;;;5020692;28;20238;-59
2020/12/03 01:40:14;;;;;;;9.57;8.57;;;18.80;56.10;;;;;;5029572;28;20700;-58
2020/12/03 01:42:41;;;;;;;9.07;8.17;;;18.80;56.00;;;;;;5011752;28;20539;-56
2020/12/03 01:45:49;;;;;;;9.20;8.30;;;18.80;56.10;;;;;;5027415;28;20229;-58
2020/12/03 01:48:37;;;;;;;9.60;8.17;;;18.80;56.10;;;;;;5004232;28;20367;-57
2020/12/03 01:51:09;;;;;;;9.30;8.40;;;18.80;56.80;;;;;;5024760;28;20650;-58
2020/12/03 01:53:36;;;;;;;9.23;8.33;;;18.80;56.20;;;;;;5018845;28;20789;-56
2020/12/03 01:56:16;;;;;;;9.50;8.53;;;18.80;56.20;;;;;;5028933;28;20234;-58
2020/12/03 01:58:44;;;;;;;9.57;8.67;;;18.80;56.20;;;;;;5017145;28;21021;-56
2020/12/03 02:01:11;;;;;;;8.60;7.80;;;18.80;56.20;;;;;;5026644;28;20239;-58
2020/12/03 02:03:49;;;;;;;8.93;8.00;;;18.70;56.20;;;;;;5016758;28;20276;-58
2020/12/03 02:06:23;;;;;;;8.93;8.03;;;18.70;56.20;;;;;;5027764;28;20300;-57
2020/12/03 02:08:50;;;;;;;8.70;7.90;;;18.70;56.90;;;;;;5016228;28;20222;-58
2020/12/03 02:11:22;;;;;;;8.80;7.90;;;18.70;56.30;;;;;;5025854;28;20242;-57
2020/12/03 02:13:55;;;;;;;9.73;8.73;;;18.70;56.20;;;;;;5013270;28;20227;-57
2020/12/03 02:16:24;;;;;;;7.20;6.50;;;18.70;56.20;;;;;;5022665;28;20833;-57
2020/12/03 02:18:51;;;;;;;7.90;7.13;;;18.70;56.20;;;;;;4998156;28;22875;-58
2020/12/03 02:21:17;;;;;;;8.23;7.43;;;18.60;56.20;;;;;;5008135;28;20235;-58
2020/12/03 02:23:45;;;;;;;8.57;7.50;;;18.60;56.30;;;;;;5006332;28;20246;-58
2020/12/03 02:26:12;;;;;;;8.70;7.80;;;18.60;56.30;;;;;;4999919;28;20242;-57
2020/12/03 02:28:38;;;;;;;9.93;7.57;;;18.70;56.30;;;;;;5011484;28;20235;-57
2020/12/03 02:31:05;;;;;;;9.17;8.27;;;18.60;56.20;;;;;;5016315;28;20230;-58
2020/12/03 02:33:31;;;;;;;8.13;7.27;;;18.60;56.30;;;;;;5010066;28;20227;-59
2020/12/03 02:35:58;;;;;;;8.63;7.60;;;18.60;56.20;;;;;;4997988;28;20286;-58
2020/12/03 02:38:28;;;;;;;8.40;7.10;;;18.60;56.20;;;;;;5016106;28;20234;-58
2020/12/03 02:41:00;;;;;;;8.53;6.73;;;18.60;56.30;;;;;;4999073;28;20231;-58
2020/12/03 02:43:27;;;;;;;8.27;7.13;;;18.60;56.30;;;;;;5006581;28;20231;-58
2020/12/03 02:45:54;;;;;;;7.87;6.90;;;18.50;56.20;;;;;;4999410;28;20219;-57
2020/12/03 02:48:21;;;;;;;7.43;6.63;;;18.50;56.20;;;;;;5007598;28;20239;-57
2020/12/03 02:50:47;;;;;;;8.67;7.20;;;18.50;56.20;;;;;;5003216;28;20594;-57
2020/12/03 02:53:13;;;;;;;7.77;6.93;;;18.50;56.20;;;;;;5005116;28;20231;-58
2020/12/03 02:55:39;;;;;;;7.60;6.90;;;18.50;56.30;;;;;;5010587;28;20596;-57
2020/12/03 02:58:06;;;;;;;8.93;7.30;;;18.50;56.20;;;;;;5027267;28;20278;-58
2020/12/03 03:00:32;;;;;;;7.50;6.70;;;18.50;56.20;;;;;;5019383;28;20219;-57
2020/12/03 03:02:58;;;;;;;8.10;7.30;;;18.50;56.30;;;;;;5024805;28;20329;-57
2020/12/03 03:05:24;;;;;;;6.90;6.20;;;18.50;56.30;;;;;;5027830;28;20297;-57
2020/12/03 03:07:51;;;;;;;7.00;6.30;;;18.50;56.30;;;;;;5014785;28;20300;-57
2020/12/03 03:10:21;;;;;;;7.10;6.33;;;18.50;56.20;;;;;;5026016;28;20575;-58
2020/12/03 03:12:50;;;;;;;6.90;6.20;;;18.50;56.20;;;;;;5018619;28;20229;-58
2020/12/03 03:15:17;;;;;;;8.07;6.67;;;18.40;56.20;;;;;;5022674;28;20261;-56
2020/12/03 03:17:44;;;;;;;8.47;6.63;;;18.40;56.30;;;;;;5018972;28;21591;-58
2020/12/03 03:20:11;;;;;;;8.00;6.63;;;18.40;56.30;;;;;;5026562;28;20227;-58
2020/12/03 03:22:39;;;;;;;7.03;6.20;;;18.40;56.20;;;;;;5016514;28;20235;-57
2020/12/03 03:25:07;;;;;;;7.13;6.43;;;18.40;56.30;;;;;;5027115;28;20246;-59
2020/12/03 03:27:34;;;;;;;7.60;6.63;;;18.40;56.30;;;;;;5015110;28;20317;-57
2020/12/03 03:30:00;;;;;;;8.40;7.27;;;18.40;56.10;;;;;;5008661;28;20235;-57
2020/12/03 03:32:26;;;;;;;7.30;6.30;;;18.40;56.20;;;;;;4996820;28;20277;-58
2020/12/03 03:34:52;;;;;;;7.80;7.00;;;18.40;56.20;;;;;;5021685;28;20234;-58
2020/12/03 03:37:18;;;;;;;8.63;6.47;;;18.40;56.20;;;;;;5020095;28;20239;-57
2020/12/03 03:39:45;;;;;;;6.90;6.20;;;18.40;56.10;;;;;;5027321;28;20711;-57
2020/12/03 03:42:11;;;;;;;7.40;6.60;;;18.40;56.10;;;;;;5022910;28;20222;-58
2020/12/03 03:44:37;;;;;;;8.10;6.73;;;18.40;56.20;;;;;;5022905;28;20276;-58
2020/12/03 03:47:03;;;;;;;6.43;5.73;;;18.40;56.10;;;;;;5027507;28;20242;-58
2020/12/03 03:49:30;;;;;;;7.37;6.23;;;18.30;56.10;;;;;;5016340;28;20218;-57
2020/12/03 03:51:56;;;;;;;8.27;7.07;;;18.30;56.10;;;;;;5027153;28;20226;-56
2020/12/03 03:54:22;;;;;;;8.50;6.50;;;18.30;56.20;;;;;;5020793;28;20238;-56
2020/12/03 03:56:48;;;;;;;7.43;6.27;;;18.40;56.20;;;;;;5022686;28;20223;-59
2020/12/03 03:59:15;;;;;;;7.03;6.33;;;18.30;56.10;;;;;;5019791;28;20641;-57
2020/12/03 04:01:41;;;;;;;8.50;6.20;;;18.30;56.10;;;;;;5025165;28;20226;-57
2020/12/03 04:04:07;;;;;;;7.13;6.10;;;18.30;56.10;;;;;;5019151;28;20274;-56
2020/12/03 04:06:33;;;;;;;7.07;6.37;;;18.30;56.00;;;;;;5025913;28;20214;-57
2020/12/03 04:09:00;;;;;;;7.57;5.83;;;18.30;56.10;;;;;;5015617;28;20230;-57
2020/12/03 04:11:26;;;;;;;7.07;5.67;;;18.30;56.10;;;;;;5027004;28;20289;-57
2020/12/03 04:13:52;;;;;;;6.83;6.13;;;18.30;56.10;;;;;;5018888;28;20304;-58
2020/12/03 04:16:18;;;;;;;6.50;5.80;;;18.30;56.10;;;;;;5023239;28;20227;-56
2020/12/03 04:18:45;;;;;;;6.70;6.10;;;18.30;56.00;;;;;;5023375;28;20273;-58
2020/12/03 04:21:13;;;;;;;6.67;5.53;;;18.30;56.00;;;;;;5022240;28;20231;-58
2020/12/03 04:23:39;;;;;;;6.53;5.93;;;18.30;56.10;;;;;;5026050;28;20223;-57
2020/12/03 04:26:06;;;;;;;6.80;5.80;;;18.20;56.00;;;;;;5018840;28;20772;-56
2020/12/03 04:28:32;;;;;;;8.37;6.03;;;18.20;56.00;;;;;;5025528;28;20223;-57
2020/12/03 04:30:58;;;;;;;7.07;5.70;;;18.20;56.00;;;;;;5011633;28;20239;-59
2020/12/03 04:33:25;;;;;;;7.27;5.63;;;18.30;56.00;;;;;;5025666;28;20707;-58
2020/12/03 04:35:51;;;;;;;6.73;6.13;;;18.20;55.90;;;;;;5017205;28;20887;-57
2020/12/03 04:38:18;;;;;;;8.20;6.23;;;18.20;55.90;;;;;;5025389;28;20277;-59
2020/12/03 04:40:46;;;;;;;9.07;5.83;;;18.20;55.90;;;;;;5014658;28;20230;-57
2020/12/03 04:43:33;;;;;;;7.00;5.83;;;18.20;55.80;;;;;;5010210;28;20578;-58
2020/12/03 04:46:25;;;;;;;8.23;6.33;;;18.20;55.80;;;;;;5013507;28;20551;-58
2020/12/03 04:49:23;;;;;;;9.20;6.23;;;18.20;55.80;;;;;;5014066;28;20470;-57
2020/12/03 04:52:05;;;;;;;7.50;6.00;;;18.20;55.80;;;;;;5016679;28;20233;-56
2020/12/03 04:54:43;;;;;;;5.97;5.37;;;18.20;55.90;;;;;;5022290;28;20660;-59
2020/12/03 04:57:21;;;;;;;7.73;5.77;;;18.20;55.80;;;;;;5018043;28;20226;-58
2020/12/03 04:59:57;;;;;;;6.87;5.73;;;18.20;55.80;;;;;;5024404;28;20222;-58
2020/12/03 05:03:08;;;;;;;7.23;5.60;;;18.20;55.70;;;;;;5015021;28;20218;-58
2020/12/03 05:05:52;;;;;;;6.90;6.10;;;18.10;55.70;;;;;;5028734;28;20650;-57
2020/12/03 05:08:34;;;;;;;7.73;6.40;;;18.10;55.60;;;;;;5027574;28;20293;-58
2020/12/03 05:11:07;;;;;;;6.40;5.60;;;18.10;55.60;;;;;;5021852;28;21641;-58
2020/12/03 05:13:44;;;;;;;6.90;5.80;;;18.10;55.50;;;;;;5025457;28;20808;-56
2020/12/03 05:16:26;;;;;;;7.10;5.67;;;18.10;55.50;;;;;;5013561;28;21754;-58
2020/12/03 05:19:00;;;;;;;7.47;5.10;;;18.10;55.50;;;;;;5014349;28;20231;-58
2020/12/03 05:21:30;;;;;;;6.07;5.40;;;18.10;55.50;;;;;;5001262;28;20235;-58
2020/12/03 05:23:57;;;;;;;8.03;5.87;;;18.10;55.50;;;;;;5021084;28;20223;-58
2020/12/03 05:26:26;;;;;;;8.63;6.30;;;18.10;55.50;;;;;;5009250;28;20240;-58
2020/12/03 05:29:08;;;;;;;7.40;5.60;;;18.10;55.50;;;;;;5022314;28;20237;-58
2020/12/03 05:31:43;;;;;;;6.47;5.83;;;18.10;55.40;;;;;;5025565;28;21903;-58
2020/12/03 05:34:19;;;;;;;6.83;5.40;;;18.10;55.50;;;;;;5020108;28;20545;-58
2020/12/03 05:36:55;;;;;;;7.10;5.57;;;18.10;55.50;;;;;;5024714;28;20448;-58
2020/12/03 05:39:33;;;;;;;7.47;5.63;;;18.10;55.40;;;;;;5007084;28;20829;-58
2020/12/03 05:42:04;;;;;;;7.57;5.07;;;18.10;55.50;;;;;;5027000;28;21966;-58
2020/12/03 05:44:38;;;;;;;6.17;4.90;;;18.10;55.50;;;;;;5021287;28;20710;-59
2020/12/03 05:47:24;;;;;;;5.87;4.50;;;18.10;55.50;;;;;;5027326;28;21122;-57
2020/12/03 05:50:04;;;;;;;7.13;5.20;;;18.10;55.50;;;;;;5023489;28;20770;-58
2020/12/03 05:52:31;;;;;;;6.03;5.17;;;18.10;55.40;;;;;;5025120;28;20210;-58
2020/12/03 05:55:06;;;;;;;6.23;4.50;;;18.00;55.40;;;;;;5020690;28;20243;-59
2020/12/03 05:57:41;;;;;;;6.83;5.10;;;18.00;55.40;;;;;;5018669;28;20227;-58
2020/12/03 06:00:12;;;;;;;8.17;5.00;;;18.00;55.50;;;;;;5000228;28;20223;-58
2020/12/03 06:03:05;;;;;;;6.47;4.80;;;18.00;55.50;;;;;;5008630;28;20231;-58
2020/12/03 06:06:07;;;;;;;9.63;4.50;;;18.00;55.50;;;;;;5018893;28;20280;-58
2020/12/03 06:09:14;;;;;;;6.37;4.60;;;18.00;55.60;;;;;;5018185;28;20977;-58
2020/12/03 06:12:07;;;;;;;7.57;4.20;;;18.00;55.60;;;;;;5018401;28;20575;-58
2020/12/03 06:15:02;;;;;;;7.13;4.50;;;18.00;55.50;;;;;;5019113;28;21319;-58
2020/12/03 06:18:01;;;;;;;5.37;4.00;;;18.00;55.60;;;;;;5022900;28;20708;-57
2020/12/03 06:21:17;;;;;;;5.60;3.97;;;18.00;55.50;;;;;;5015246;28;20567;-58
2020/12/03 06:24:11;;;;;;;9.33;4.33;;;18.00;55.40;;;;;;4958543;28;20510;-58
2020/12/03 06:27:01;;;;;;;7.93;4.40;;;18.00;55.30;;;;;;4924172;28;20975;-58
2020/12/03 06:30:24;;;;;;;6.57;4.63;;;18.00;55.30;;;;;;5011936;28;20219;-58
2020/12/03 06:33:14;;;;;;;7.67;4.27;;;18.00;55.30;;;;;;4963622;28;20892;-57
2020/12/03 06:36:01;;;;;;;7.67;3.80;;;18.00;55.20;;;;;;4943258;28;21457;-58
2020/12/03 06:39:12;;;;;;;5.63;3.90;;;18.00;55.30;;;;;;5018515;28;20215;-56
2020/12/03 06:41:48;;;;;;;5.33;3.50;;;18.00;55.10;;;;;;5004795;28;20552;-58
2020/12/03 06:44:34;;;;;;;6.20;3.93;;;17.90;55.20;;;;;;5009656;28;20284;-57
2020/12/03 06:47:18;;;;;;;6.37;4.03;;;18.00;55.20;;;;;;4999047;28;20239;-61
2020/12/03 06:50:27;;;;;;;5.00;3.60;;;18.00;55.20;;;;;;5005931;28;20227;-58
2020/12/03 06:53:29;;;;;;;7.83;4.27;;;18.00;55.10;;;;;;5006109;28;20899;-57
2020/12/03 06:56:14;;;;;;;7.63;3.50;;;17.90;55.00;;;;;;5004673;28;23273;-57
2020/12/03 06:59:06;;;;;;;4.53;3.33;;;17.90;54.90;;;;;;5018725;28;20355;-56
2020/12/03 07:02:09;;;;;;;4.87;3.47;;;17.90;54.90;;;;;;5015373;28;21539;-59
2020/12/03 07:05:03;;;;;;;3.90;3.23;;;17.90;54.80;;;;;;5018873;28;20861;-57
2020/12/03 07:08:03;;;;;;;4.83;2.97;;;17.90;54.70;;;;;;5000972;28;20227;-58
2020/12/03 07:10:58;;;;;;;5.80;3.40;;;17.90;54.70;;;;;;5003061;28;20618;-58
2020/12/03 07:14:14;;;;;;;5.03;3.10;;;17.90;54.70;;;;;;5013717;28;20500;-59
2020/12/03 07:17:19;;;;;;;5.37;3.60;;;17.90;54.70;;;;;;5018599;28;20440;-58
2020/12/03 07:20:04;;;;;;;5.13;3.30;;;17.90;54.70;;;;;;5026005;28;20710;-59
2020/12/03 07:22:37;;;;;;;4.63;3.20;;;17.90;54.60;;;;;;5020116;28;20612;-59
2020/12/03 07:25:16;;;;;;;6.40;2.83;;;17.90;54.60;;;;;;5025088;28;20613;-56
2020/12/03 07:28:08;;;;;;;3.57;3.23;;;17.90;54.60;;;;;;5016660;28;20847;-57
2020/12/03 07:31:00;;;;;;;4.13;3.03;;;17.90;54.50;;;;;;5030439;28;20600;-55
2020/12/03 07:33:36;;;;;;;4.97;3.20;;;17.90;54.50;;;;;;5022002;28;20259;-56
2020/12/03 07:36:21;;;;;;;4.30;3.73;;;17.90;54.50;;;;;;5032315;28;20419;-56
2020/12/03 07:39:05;;;;;;;4.80;3.37;;;17.90;54.50;;;;;;5018425;28;20599;-58
2020/12/03 07:41:51;;;;;;;4.23;3.27;;;17.90;54.50;;;;;;5032667;28;20258;-59
2020/12/03 07:44:28;;;;;;;3.97;3.07;;;17.90;54.50;;;;;;5016289;28;20569;-57
2020/12/03 07:47:25;;;;;;;4.83;3.03;;;17.90;54.40;;;;;;5028443;28;20305;-59
2020/12/03 07:49:53;;;;;;;4.33;3.30;;;17.80;54.40;;;;;;5026031;28;21999;-60
2020/12/03 07:52:23;;;;;;;3.33;3.00;;;17.90;54.40;;;;;;5030548;28;20233;-57
2020/12/03 07:54:51;;;;;;;4.37;2.97;;;17.80;54.30;;;;;;5015714;28;20231;-57
2020/12/03 07:57:38;;;;;;;4.57;3.30;;;17.80;54.30;;;;;;5032195;28;20687;-59
2020/12/03 08:00:26;;;;;;;4.13;3.27;;;17.80;54.30;;;;;;5016334;28;20846;-59
2020/12/03 08:02:53;;;;;;;4.90;3.33;;;17.80;54.40;;;;;;5027667;28;20829;-59
2020/12/03 08:05:41;;;;;;;4.37;2.83;;;17.80;54.40;;;;;;5018587;28;20313;-59
2020/12/03 08:08:31;;;;;;;4.17;3.40;;;17.80;54.30;;;;;;5020859;28;21152;-60
2020/12/03 08:10:57;;;;;;;59.63;12.17;;;17.80;54.80;;;;;;5021916;28;20294;-60
2020/12/03 08:13:40;;;;;;;43.27;8.93;;;17.80;54.90;;;;;;5023276;28;20222;-59
2020/12/03 08:16:11;;;;;;;50.63;9.30;;;18.00;55.80;;;;;;5025973;28;20235;-60
2020/12/03 08:18:45;;;;;;;43.57;10.37;;;18.70;54.00;;;;;;5026506;28;20265;-73
2020/12/03 08:21:14;;;;;;;34.00;8.63;;;19.20;53.40;;;;;;5025491;28;20604;-71
2020/12/03 08:23:52;;;;;;;36.73;7.43;;;19.60;52.90;;;;;;5025053;28;20273;-62
2020/12/03 08:26:28;;;;;;;22.47;6.73;;;20.00;52.50;;;;;;5017001;28;20706;-64
2020/12/03 08:28:55;;;;;;;22.60;6.53;;;20.30;51.90;;;;;;5024241;28;20335;-62
2020/12/03 08:31:21;;;;;;;27.17;6.40;;;20.50;51.50;;;;;;5021154;28;20226;-65
2020/12/03 08:33:52;;;;;;;20.17;5.53;;;20.70;51.10;;;;;;5024041;28;20230;-65
2020/12/03 08:36:19;;;;;;;19.57;5.47;;;20.90;50.80;;;;;;5019728;28;20292;-60
2020/12/03 08:38:53;;;;;;;14.83;5.20;;;21.00;50.40;;;;;;5027121;28;20701;-63
2020/12/03 08:41:24;;;;;;;16.50;4.77;;;21.30;50.20;;;;;;5018909;28;20628;-65
2020/12/03 08:43:53;;;;;;;14.10;4.83;;;21.50;50.00;;;;;;5024846;28;20238;-63
2020/12/03 08:46:24;;;;;;;11.27;4.23;;;21.60;49.60;;;;;;5018259;28;20603;-63
2020/12/03 08:48:51;;;;;;;9.63;4.53;;;21.80;49.10;;;;;;5027788;28;20678;-62
2020/12/03 08:51:18;;;;;;;7.33;3.80;;;22.00;49.00;;;;;;5021445;28;20690;-64
2020/12/03 08:53:48;;;;;;;8.57;3.57;;;22.40;48.00;;;;;;5023159;28;20320;-62
2020/12/03 08:56:23;;;;;;;10.77;2.93;;;22.80;47.30;;;;;;5017014;28;20231;-63
2020/12/03 08:58:59;;;;;;;6.90;3.30;;;23.00;46.70;;;;;;5023715;28;20222;-65
2020/12/03 09:01:37;;;;;;;5.13;3.00;;;23.30;46.20;;;;;;5018044;28;20236;-62
2020/12/03 09:04:04;;;;;;;7.73;3.10;;;23.40;45.90;;;;;;5026604;28;20233;-64
2020/12/03 09:06:31;;;;;;;5.17;2.87;;;23.60;45.60;;;;;;5014805;28;20249;-62
2020/12/03 09:09:00;;;;;;;9.20;3.17;;;23.60;45.50;;;;;;5019752;28;20873;-64
2020/12/03 09:11:27;;;;;;;4.00;2.80;;;23.80;45.30;;;;;;5019140;28;20237;-63
2020/12/03 09:13:57;;;;;;;4.47;2.60;;;23.90;44.90;;;;;;5022595;28;20227;-61
2020/12/03 09:16:26;;;;;;;3.43;2.10;;;24.10;44.60;;;;;;5017852;28;20229;-64
2020/12/03 09:18:53;;;;;;;6.97;2.93;;;24.20;44.40;;;;;;5019756;28;20219;-64
2020/12/03 09:21:25;;;;;;;5.23;2.70;;;24.30;44.20;;;;;;5021428;28;20241;-63
2020/12/03 09:23:54;;;;;;;3.40;2.10;;;24.40;44.10;;;;;;5023881;28;20662;-64
2020/12/03 09:26:26;;;;;;;5.57;2.30;;;24.50;44.00;;;;;;5024315;28;20230;-64
2020/12/03 09:28:53;;;;;;;2.53;1.80;;;24.50;43.90;;;;;;5017844;28;20227;-63
2020/12/03 09:31:26;;;;;;;2.77;2.27;;;24.60;43.60;;;;;;5025517;28;20231;-64
2020/12/03 09:33:54;;;;;;;3.87;2.03;;;24.60;43.70;;;;;;5015355;28;20235;-63
2020/12/03 09:36:21;;;;;;;2.50;1.90;;;24.70;43.50;;;;;;5026025;28;20229;-64
2020/12/03 09:38:48;;;;;;;3.13;2.33;;;24.80;43.20;;;;;;5019261;28;20230;-64
2020/12/03 09:41:22;;;;;;;3.17;2.30;;;24.90;43.10;;;;;;5023230;28;20218;-65
2020/12/03 09:43:52;;;;;;;5.90;3.60;;;25.00;42.80;;;;;;5013175;28;20223;-58
2020/12/03 09:46:24;;;;;;;6.37;3.60;;;24.30;42.00;;;;;;5018664;28;20228;-58
2020/12/03 09:48:55;;;;;;;4.73;3.23;;;23.60;42.60;;;;;;5020605;28;20219;-57
2020/12/03 09:51:23;;;;;;;4.20;3.30;;;23.20;45.10;;;;;;5024428;28;20234;-57
2020/12/03 09:53:50;;;;;;;9.17;3.53;;;23.10;46.60;;;;;;5024503;28;20593;-58
2020/12/03 09:56:19;;;;;;;5.27;3.20;;;22.90;47.50;;;;;;5027791;28;20313;-57
2020/12/03 09:58:45;;;;;;;11.03;3.23;;;22.90;47.90;;;;;;5022990;28;20230;-59
2020/12/03 10:01:14;;;;;;;7.03;3.40;;;22.80;48.60;;;;;;5025336;28;20223;-65
2020/12/03 10:04:17;;;;;;;9.27;2.80;;;23.40;47.90;;;;;;5018676;28;20269;-60
2020/12/03 10:07:05;;;;;;;5.17;2.60;;;24.10;46.60;;;;;;5027574;28;20584;-60
2020/12/03 10:10:02;;;;;;;6.87;2.70;;;24.50;46.50;;;;;;5019014;28;20877;-61
2020/12/03 10:13:16;;;;;;;6.50;2.70;;;24.60;45.70;;;;;;5026993;28;20736;-63
2020/12/03 10:16:03;;;;;;;6.53;2.50;;;24.90;45.10;;;;;;5007219;28;20540;-65
2020/12/03 10:18:38;;;;;;;5.33;2.17;;;25.10;44.80;;;;;;5025262;28;20604;-64
2020/12/03 10:21:04;;;;;;;7.17;2.43;;;25.20;44.60;;;;;;5020748;28;20661;-66
2020/12/03 10:23:30;;;;;;;4.83;2.10;;;25.30;44.40;;;;;;5026914;28;20223;-65
2020/12/03 10:26:11;;;;;;;2.17;1.97;;;25.40;44.20;;;;;;5020598;28;20234;-63
2020/12/03 10:28:42;;;;;;;3.50;2.00;;;25.50;44.10;;;;;;5008921;28;20903;-63
2020/12/03 10:31:09;;;;;;;3.00;2.10;;;25.60;44.10;;;;;;5001109;28;20231;-57
2020/12/03 10:33:36;;;;;;;5.53;1.87;;;25.60;44.10;;;;;;5009435;28;20928;-58
2020/12/03 10:36:11;;;;;;;2.10;1.73;;;25.70;43.60;;;;;;5000287;28;20227;-59
2020/12/03 10:38:47;;;;;;;3.70;1.70;;;25.90;43.40;;;;;;5002522;28;20238;-58
2020/12/03 10:41:15;;;;;;;1.90;1.70;;;25.90;43.30;;;;;;4996455;28;21159;-60
2020/12/03 10:43:49;;;;;;;3.40;1.97;;;26.00;43.10;;;;;;5009236;28;20231;-59
2020/12/03 10:46:21;;;;;;;3.40;1.83;;;26.10;43.20;;;;;;4996776;28;20285;-61
2020/12/03 10:48:49;;;;;;;5.53;1.90;;;26.20;43.00;;;;;;5004355;28;20238;-61
2020/12/03 10:51:17;;;;;;;2.83;1.87;;;26.20;42.80;;;;;;4999263;28;20239;-56
2020/12/03 10:53:47;;;;;;;7.07;1.80;;;26.30;42.60;;;;;;5013280;28;20572;-55
2020/12/03 10:56:15;;;;;;;4.87;2.20;;;26.30;42.40;;;;;;5002943;28;20222;-57
2020/12/03 10:59:18;;;;;;;3.03;2.47;;;26.00;43.10;;;;;;5005530;28;20250;-59
2020/12/03 11:01:50;;;;;;;2.87;1.90;;;25.50;43.70;;;;;;4996949;28;20870;-60
2020/12/03 11:04:17;;;;;;;4.10;2.40;;;25.00;44.70;;;;;;4998721;28;20234;-59
2020/12/03 11:06:44;;;;;;;2.23;1.90;;;24.70;45.40;;;;;;4997049;28;20254;-58
2020/12/03 11:09:19;;;;;;;4.03;2.40;;;24.60;45.70;;;;;;5004319;28;20234;-61
2020/12/03 11:11:47;;;;;;;3.13;2.60;;;24.40;46.50;;;;;;4993083;28;20585;-59
2020/12/03 11:14:15;;;;;;;4.60;2.37;;;24.20;45.80;;;;;;5001305;28;20226;-60
2020/12/03 11:17:36;;;;;;;5.13;2.40;;;24.20;45.50;;;;;;4993731;28;20227;-60
2020/12/03 11:20:24;;;;;;;4.57;2.60;;;24.10;45.80;;;;;;4985826;28;20392;-61
2020/12/03 11:23:05;;;;;;;2.30;2.10;;;24.00;46.20;;;;;;4993662;28;20243;-60
2020/12/03 11:25:33;;;;;;;5.50;2.50;;;23.90;45.50;;;;;;5003665;28;22041;-59
2020/12/03 11:28:11;;;;;;;3.40;2.20;;;23.80;45.70;;;;;;4997362;28;20352;-59
2020/12/03 11:30:37;;;;;;;3.47;2.20;;;23.80;45.80;;;;;;5013568;28;20242;-58
2020/12/03 11:33:04;;;;;;;6.47;2.40;;;23.50;44.50;;;;;;5016437;28;20218;-59
2020/12/03 11:35:33;;;;;;;3.47;2.27;;;23.30;45.50;;;;;;5022536;28;20613;-56
2020/12/03 11:38:04;;;;;;;1.83;1.73;;;23.00;45.90;;;;;;5020337;28;20211;-54
2020/12/03 11:40:49;;;;;;;2.50;2.23;;;22.90;46.40;;;;;;5008828;28;20222;-54
2020/12/03 11:48:54;;;;;;;2.20;2.00;;;22.50;46.90;;;;;;5010114;28;21209;-55
2020/12/03 11:51:34;;;;;;;2.10;1.90;;;22.50;47.20;;;;;;5023587;28;20242;-56
2020/12/03 11:54:03;;;;;;;3.33;1.63;;;22.40;47.40;;;;;;5015085;28;20237;-54
2020/12/03 11:56:31;;;;;;;2.60;1.87;;;22.30;47.60;;;;;;5027221;28;20218;-58
2020/12/03 11:59:16;;;;;;;2.40;1.77;;;22.20;47.60;;;;;;5007992;28;20231;-60
2020/12/03 12:01:54;;;;;;;1.93;1.73;;;22.20;47.80;;;;;;5025172;28;20228;-60
2020/12/03 12:09:45;;;;;;;2.77;2.13;;;22.10;50.60;;;;;;5014183;28;20218;-58
2020/12/03 12:12:13;;;;;;;2.20;1.63;;;22.10;49.50;;;;;;5022624;28;20245;-57
2020/12/03 12:14:39;;;;;;;5.40;1.60;;;22.30;49.40;;;;;;5016171;28;20230;-60
2020/12/03 12:17:06;;;;;;;2.47;1.50;;;22.30;49.50;;;;;;5025540;28;20573;-58
2020/12/03 12:19:33;;;;;;;5.13;2.07;;;22.40;49.20;;;;;;5013739;28;20260;-62
2020/12/03 12:22:01;;;;;;;2.30;1.90;;;22.40;49.00;;;;;;5022940;28;20233;-58
2020/12/03 12:24:27;;;;;;;1.70;1.60;;;22.40;48.80;;;;;;4997872;28;20281;-61
2020/12/03 12:26:54;;;;;;;3.97;1.90;;;22.40;49.10;;;;;;5003242;28;20230;-63
2020/12/03 12:29:21;;;;;;;1.53;1.40;;;22.50;49.00;;;;;;4994159;28;20353;-64
2020/12/03 12:31:47;;;;;;;2.27;1.80;;;22.40;48.50;;;;;;5000356;28;20235;-64
2020/12/03 12:34:14;;;;;;;4.20;1.30;;;22.40;48.80;;;;;;5011498;28;20222;-61
2020/12/03 12:36:40;;;;;;;1.50;1.40;;;22.40;48.90;;;;;;5011642;28;20215;-64
2020/12/03 12:39:06;;;;;;;2.93;1.37;;;22.40;48.80;;;;;;5023735;28;20614;-62
2020/12/03 12:41:36;;;;;;;2.10;1.50;;;22.40;48.50;;;;;;5018063;28;20222;-63
2020/12/03 12:44:03;;;;;;;2.43;1.70;;;22.40;49.00;;;;;;5026538;28;20236;-64
2020/12/03 12:46:29;;;;;;;2.17;1.40;;;22.40;48.80;;;;;;5013533;28;20237;-65
2020/12/03 12:48:55;;;;;;;2.10;1.47;;;22.40;48.70;;;;;;5025776;28;20929;-63
2020/12/03 12:51:21;;;;;;;1.40;1.30;;;22.40;48.60;;;;;;5015427;28;20227;-63
2020/12/03 12:53:47;;;;;;;1.97;1.50;;;22.40;48.70;;;;;;5019907;28;20234;-62
2020/12/03 12:56:14;;;;;;;3.87;1.37;;;22.40;48.60;;;;;;5016186;28;20249;-58
2020/12/03 12:58:40;;;;;;;2.20;1.50;;;22.40;48.60;;;;;;5022261;28;20238;-60
2020/12/03 13:01:07;;;;;;;1.47;1.33;;;22.40;48.60;;;;;;5002379;28;21221;-60
2020/12/03 13:03:33;;;;;;;2.27;1.27;;;22.40;48.50;;;;;;5019453;28;20268;-62
2020/12/03 13:06:00;;;;;;;1.57;1.37;;;22.50;48.50;;;;;;5011909;28;20253;-62
2020/12/03 13:08:27;;;;;;;5.97;1.50;;;22.50;48.20;;;;;;5012194;28;21252;-61
2020/12/03 13:10:54;;;;;;;5.63;1.40;;;22.50;48.00;;;;;;5012684;28;20353;-61
2020/12/03 13:13:27;;;;;;;1.97;1.53;;;22.50;48.20;;;;;;5017551;28;20231;-65
2020/12/03 13:15:54;;;;;;;3.97;1.47;;;22.40;48.40;;;;;;5011649;28;20222;-64
2020/12/03 13:18:20;;;;;;;4.37;1.13;;;22.40;48.50;;;;;;5001379;28;20234;-62
2020/12/03 13:20:48;;;;;;;5.37;1.43;;;22.40;48.40;;;;;;5013088;28;20234;-62
2020/12/03 13:23:14;;;;;;;2.47;1.30;;;22.40;48.40;;;;;;5014072;28;20230;-62
2020/12/03 13:25:42;;;;;;;2.20;1.10;;;22.40;48.30;;;;;;5025532;28;20229;-66
2020/12/03 13:28:11;;;;;;;2.53;0.97;;;22.40;48.30;;;;;;5009764;28;20725;-65
2020/12/03 13:30:42;;;;;;;1.53;1.00;;;22.40;48.40;;;;;;5014884;28;20314;-63